Time;durP1;ratioP1;P1;durP2;ratioP2;P2;SDS_P1;SDS_P2;PMS_P1;PMS_P2;Temp;Humidity;BMP_temperature;BMP_pressure;BME280_temperature;BME280_humidity;BME280_pressure;Samples;Min_cycle;Max_cycle;Signal;HPM_P1;HPM_P2
2021/09/03 00:00:45;;;;;;;;;;;;;;;10.72;96.24;98802.63;1710413;84;21926;-74
2021/09/03 00:03:12;;;;;;;;;;;;;;;10.69;96.20;98803.98;1710001;84;20140;-73
2021/09/03 00:05:38;;;;;;;;;;;;;;;10.70;94.96;98796.13;1710408;84;20451;-79
2021/09/03 00:08:04;;;;;;;;;;;;;;;10.70;94.55;98793.41;1710288;84;20182;-79
2021/09/03 00:10:30;;;;;;;;;;;;;;;10.71;95.36;98794.23;1710390;84;20432;-79
2021/09/03 00:12:55;;;;;;;;;;;;;;;10.73;94.57;98793.42;1710428;84;21241;-73
2021/09/03 00:15:21;;;;;;;;;;;;;;;10.70;95.77;98800.73;1710071;84;20241;-79
2021/09/03 00:17:47;;;;;;;;;;;;;;;10.69;95.91;98793.68;1710449;84;20225;-73
2021/09/03 00:20:13;;;;;;;;;;;;;;;10.62;96.39;98796.61;1710148;84;20182;-79
2021/09/03 00:22:38;;;;;;;;;;;;;;;10.60;96.27;98796.60;1710517;83;20226;-73
2021/09/03 00:25:06;;;;;;;;;;;;;;;10.59;96.11;98797.66;1709994;84;21066;-73
2021/09/03 00:27:31;;;;;;;;;;;;;;;10.59;96.02;98795.76;1710406;84;20403;-73
2021/09/03 00:29:57;;;;;;;;;;;;;;;10.60;96.38;98791.19;1710108;83;20269;-79
2021/09/03 00:32:23;;;;;;;;;;;;;;;10.58;96.38;98794.13;1710589;83;20193;-74
2021/09/03 00:34:49;;;;;;;;;;;;;;;10.61;95.91;98790.91;1710294;83;20182;-74
2021/09/03 00:37:15;;;;;;;;;;;;;;;10.65;95.71;98789.84;1722288;83;21169;-73
2021/09/03 00:39:40;;;;;;;;;;;;;;;10.63;96.45;98787.40;1710159;84;20137;-72
2021/09/03 00:42:13;;;;;;;;;;;;;;;10.63;96.65;98791.47;1710592;83;20174;-79
2021/09/03 00:44:39;;;;;;;;;;;;;;;10.65;96.02;98785.23;1721945;83;20141;-73
2021/09/03 00:47:04;;;;;;;;;;;;;;;10.65;95.96;98788.48;1710608;83;20719;-73
2021/09/03 00:49:30;;;;;;;;;;;;;;;10.59;95.72;98775.97;1710263;83;21081;-79
2021/09/03 00:51:57;;;;;;;;;;;;;;;10.54;95.77;98785.44;1710517;83;20194;-79
2021/09/03 00:54:23;;;;;;;;;;;;;;;10.53;95.31;98783.81;1710268;84;20195;-79
2021/09/03 00:56:49;;;;;;;;;;;;;;;10.57;95.33;98778.95;1710573;84;20178;-79
2021/09/03 00:59:15;;;;;;;;;;;;;;;10.57;96.49;98779.48;1697845;84;20128;-73
2021/09/03 01:01:40;;;;;;;;;;;;;;;10.61;96.02;98773.30;1710345;83;21916;-79
2021/09/03 01:04:06;;;;;;;;;;;;;;;10.63;96.03;98768.97;1710201;84;20170;-73
2021/09/03 01:06:32;;;;;;;;;;;;;;;10.64;95.89;98771.95;1710524;84;20705;-73
2021/09/03 01:08:58;;;;;;;;;;;;;;;10.61;95.71;98767.88;1710363;83;20574;-79
2021/09/03 01:11:23;;;;;;;;;;;;;;;10.54;95.53;98767.83;1710487;84;20292;-73
2021/09/03 01:13:50;;;;;;;;;;;;;;;10.48;95.13;98768.86;1710274;84;21028;-73
2021/09/03 01:16:16;;;;;;;;;;;;;;;10.45;94.58;98762.89;1710515;84;20395;-78
2021/09/03 01:18:42;;;;;;;;;;;;;;;10.40;95.27;98757.43;1710319;84;20197;-79
2021/09/03 01:21:08;;;;;;;;;;;;;;;10.36;95.82;98754.16;1710502;83;20210;-73
2021/09/03 01:23:33;;;;;;;;;;;;;;;10.31;96.09;98755.47;1710488;83;20266;-73
2021/09/03 01:26:04;;;;;;;;;;;;;;;10.28;96.72;98751.94;1710514;84;21060;-79
2021/09/03 01:28:31;;;;;;;;;;;;;;;10.28;96.12;98751.94;1709945;83;20128;-73
2021/09/03 01:30:56;;;;;;;;;;;;;;;10.25;96.29;98756.50;1710562;84;20140;-73
2021/09/03 01:33:22;;;;;;;;;;;;;;;10.23;96.06;98754.05;1710332;84;20162;-73
2021/09/03 01:35:48;;;;;;;;;;;;;;;10.23;96.43;98754.59;1710670;83;20175;-73
2021/09/03 01:38:14;;;;;;;;;;;;;;;10.16;96.68;98749.36;1710387;84;21064;-73
2021/09/03 01:40:39;;;;;;;;;;;;;;;10.15;96.90;98752.61;1710383;84;20159;-73
2021/09/03 01:43:05;;;;;;;;;;;;;;;10.11;97.58;98748.80;1710408;84;20260;-73
2021/09/03 01:45:31;;;;;;;;;;;;;;;10.15;97.22;98751.25;1710149;84;20154;-73
2021/09/03 01:47:57;;;;;;;;;;;;;;;10.16;97.20;98754.77;1710722;83;20238;-79
2021/09/03 01:50:23;;;;;;;;;;;;;;;10.17;97.01;98747.77;1710076;83;21131;-74
2021/09/03 01:52:49;;;;;;;;;;;;;;;10.21;96.50;98747.23;1710434;84;20144;-79
2021/09/03 01:55:15;;;;;;;;;;;;;;;10.25;95.28;98740.25;1710220;84;20308;-79
2021/09/03 01:57:41;;;;;;;;;;;;;;;10.22;96.86;98738.88;1710550;84;20170;-79
2021/09/03 02:00:07;;;;;;;;;;;;;;;10.20;96.90;98739.66;1710092;83;20179;-70
2021/09/03 02:02:33;;;;;;;;;;;;;;;10.24;96.53;98742.68;1710406;84;21105;-79
2021/09/03 02:04:59;;;;;;;;;;;;;;;10.27;95.92;98734.05;1704329;84;20157;-70
2021/09/03 02:07:25;;;;;;;;;;;;;;;10.31;95.66;98735.15;1697686;83;20191;-69
2021/09/03 02:09:50;;;;;;;;;;;;;;;10.31;95.81;98729.73;1687700;83;20148;-71
2021/09/03 02:12:16;;;;;;;;;;;;;;;10.28;96.80;98731.62;1681731;85;20172;-73
2021/09/03 02:14:43;;;;;;;;;;;;;;;10.23;96.09;98729.67;1704636;84;21777;-72
2021/09/03 02:17:09;;;;;;;;;;;;;;;10.24;95.33;98721.83;1710187;84;20141;-73
2021/09/03 02:19:35;;;;;;;;;;;;;;;10.20;95.97;98715.28;1710164;83;20164;-70
2021/09/03 02:22:01;;;;;;;;;;;;;;;10.20;95.92;98707.70;1701525;83;20180;-69
2021/09/03 02:24:27;;;;;;;;;;;;;;;10.20;96.22;98707.16;1704020;84;20176;-70
2021/09/03 02:26:52;;;;;;;;;;;;;;;10.20;96.79;98717.98;1679814;85;21145;-69
2021/09/03 02:29:18;;;;;;;;;;;;;;;10.18;97.02;98711.48;1679401;84;20173;-69
2021/09/03 02:31:44;;;;;;;;;;;;;;;10.24;96.53;98709.64;1679648;84;20307;-69
2021/09/03 02:34:10;;;;;;;;;;;;;;;10.25;96.72;98700.97;1679452;84;20176;-69
2021/09/03 02:36:35;;;;;;;;;;;;;;;10.29;95.37;98704.27;1679714;85;20172;-69
2021/09/03 02:50:03;;;;;;;;;;;;;;;10.21;96.21;98695.78;1707790;84;20117;-74
2021/09/03 02:52:28;;;;;;;;;;;;;;;10.26;96.42;98686.38;1708036;83;20395;-72
2021/09/03 02:54:54;;;;;;;;;;;;;;;10.27;96.12;98684.76;1707816;83;21089;-72
2021/09/03 02:57:27;;;;;;;;;;;;;;;10.28;95.47;98680.97;1707771;84;20096;-72
2021/09/03 02:59:59;;;;;;;;;;;;;;;10.29;95.46;98681.24;1710753;83;20228;-70
2021/09/03 03:02:31;;;;;;;;;;;;;;;10.31;95.33;98679.62;1717926;82;20420;-70
2021/09/03 03:04:57;;;;;;;;;;;;;;;10.32;95.61;98673.13;1725714;83;20154;-70
2021/09/03 03:07:23;;;;;;;;;;;;;;;10.34;95.30;98673.67;1725950;82;21078;-70
2021/09/03 03:09:48;;;;;;;;;;;;;;;10.34;95.33;98669.61;1725674;82;20181;-71
2021/09/03 03:12:15;;;;;;;;;;;;;;;10.29;94.84;98670.41;1725912;82;20189;-71
2021/09/03 03:14:41;;;;;;;;;;;;;;;10.28;94.54;98677.45;1699104;82;20166;-70
2021/09/03 03:17:07;;;;;;;;;;;;;;;10.30;94.27;98673.93;1697028;83;20156;-70
2021/09/03 03:19:32;;;;;;;;;;;;;;;10.30;94.50;98674.74;1696800;83;21008;-70
2021/09/03 03:21:58;;;;;;;;;;;;;;;10.28;94.64;98666.61;1696761;83;20168;-71
2021/09/03 03:24:24;;;;;;;;;;;;;;;10.22;94.91;98673.03;1696702;83;20187;-71
2021/09/03 03:26:50;;;;;;;;;;;;;;;10.18;95.02;98668.15;1697005;83;20152;-71
2021/09/03 03:29:16;;;;;;;;;;;;;;;10.12;95.17;98667.83;1696702;84;20247;-70
2021/09/03 03:31:41;;;;;;;;;;;;;;;10.11;94.83;98668.09;1696965;83;21171;-73
2021/09/03 03:34:09;;;;;;;;;;;;;;;10.09;94.81;98662.13;1696416;83;20220;-69
2021/09/03 03:36:35;;;;;;;;;;;;;;;10.06;95.28;98665.34;1696969;84;20129;-76
2021/09/03 03:39:01;;;;;;;;;;;;;;;10.06;95.25;98666.70;1696684;83;20524;-65
2021/09/03 03:41:26;;;;;;;;;;;;;;;10.07;94.85;98670.49;1696903;83;20199;-64
2021/09/03 03:43:52;;;;;;;;;;;;;;;10.06;94.87;98668.86;1696821;83;21175;-64
2021/09/03 03:46:18;;;;;;;;;;;;;;;10.03;94.48;98672.64;1697049;83;20239;-64
2021/09/03 03:48:44;;;;;;;;;;;;;;;9.99;94.99;98676.39;1697143;83;20246;-64
2021/09/03 03:57:59;;;;;;;;;;;;;;;10.02;95.54;98672.38;1612460;88;20154;-69
2021/09/03 04:00:25;;;;;;;;;;;;;;;10.03;95.30;98671.29;1725389;83;20664;-69
2021/09/03 04:02:51;;;;;;;;;;;;;;;10.05;94.71;98666.42;1724485;82;20221;-69
2021/09/03 04:05:17;;;;;;;;;;;;;;;10.03;94.36;98666.69;1709850;84;20774;-65
2021/09/03 04:07:44;;;;;;;;;;;;;;;10.06;94.20;98669.41;1710304;84;20198;-66
2021/09/03 04:10:15;;;;;;;;;;;;;;;9.98;94.08;98669.34;1696574;83;21123;-66
2021/09/03 04:12:40;;;;;;;;;;;;;;;9.93;93.96;98665.27;1686500;84;20160;-66
2021/09/03 04:15:13;;;;;;;;;;;;;;;9.88;93.65;98667.38;1709625;84;20160;-65
2021/09/03 04:17:40;;;;;;;;;;;;;;;9.87;93.61;98663.05;1695775;84;20210;-65
2021/09/03 04:20:07;;;;;;;;;;;;;;;9.82;94.10;98663.53;1706435;84;20255;-65
2021/09/03 04:22:33;;;;;;;;;;;;;;;9.83;94.07;98661.14;1706615;84;21667;-65
2021/09/03 04:25:01;;;;;;;;;;;;;;;9.84;93.87;98667.64;1683607;84;20126;-65
2021/09/03 04:27:26;;;;;;;;;;;;;;;9.81;93.75;98663.27;1712358;84;20161;-65
2021/09/03 04:29:52;;;;;;;;;;;;;;;9.77;93.68;98657.56;1712212;84;20147;-65
2021/09/03 04:32:18;;;;;;;;;;;;;;;9.78;94.98;98659.19;1712638;83;20257;-66
2021/09/03 04:34:44;;;;;;;;;;;;;;;9.80;93.98;98654.33;1712190;83;22211;-66
2021/09/03 04:37:09;;;;;;;;;;;;;;;9.78;95.25;98656.48;1726652;83;20298;-66
2021/09/03 04:39:35;;;;;;;;;;;;;;;9.80;94.68;98662.98;1726463;83;20221;-65
2021/09/03 04:42:01;;;;;;;;;;;;;;;9.79;94.21;98658.66;1712068;84;20182;-65
2021/09/03 04:44:27;;;;;;;;;;;;;;;9.82;94.40;98664.89;1683130;84;20164;-66
2021/09/03 04:46:53;;;;;;;;;;;;;;;9.80;93.65;98666.51;1683081;85;21156;-66
2021/09/03 04:49:21;;;;;;;;;;;;;;;9.82;93.86;98663.53;1682904;84;20256;-65
2021/09/03 04:51:47;;;;;;;;;;;;;;;9.68;94.36;98657.77;1683202;85;20169;-65
2021/09/03 04:54:13;;;;;;;;;;;;;;;9.71;94.05;98664.54;1682713;84;20162;-65
2021/09/03 04:56:40;;;;;;;;;;;;;;;9.78;94.08;98662.44;1682955;84;20142;-66
2021/09/03 04:59:10;;;;;;;;;;;;;;;9.83;94.01;98660.59;1683477;85;21408;-66
2021/09/03 05:01:37;;;;;;;;;;;;;;;9.90;93.55;98659.00;1683774;84;20204;-65
2021/09/03 05:04:03;;;;;;;;;;;;;;;9.97;93.53;98656.08;1683557;84;20736;-70
2021/09/03 05:06:29;;;;;;;;;;;;;;;9.99;94.02;98663.39;1683533;85;20138;-70
2021/09/03 05:08:55;;;;;;;;;;;;;;;10.07;94.08;98662.37;1683768;84;20188;-70
2021/09/03 05:11:21;;;;;;;;;;;;;;;10.18;93.60;98657.86;1683665;84;21061;-69
2021/09/03 05:13:47;;;;;;;;;;;;;;;10.29;94.08;98654.70;1683771;85;20164;-69
2021/09/03 05:16:12;;;;;;;;;;;;;;;10.38;92.76;98653.94;1683158;84;20168;-69
2021/09/03 05:18:38;;;;;;;;;;;;;;;10.41;93.00;98652.58;1712346;83;20158;-70
2021/09/03 05:21:06;;;;;;;;;;;;;;;10.51;93.09;98651.81;1712216;84;20254;-68
2021/09/03 05:23:33;;;;;;;;;;;;;;;10.63;93.18;98651.08;1712363;83;21042;-68
2021/09/03 05:25:59;;;;;;;;;;;;;;;10.73;94.05;98653.28;1712038;84;20153;-76
2021/09/03 05:28:25;;;;;;;;;;;;;;;10.81;93.93;98654.67;1712258;84;20193;-72
2021/09/03 05:30:54;;;;;;;;;;;;;;;10.91;93.45;98651.17;1712193;84;20167;-72
2021/09/03 05:33:21;;;;;;;;;;;;;;;10.96;93.50;98656.08;1725704;83;20128;-72
2021/09/03 05:35:47;;;;;;;;;;;;;;;11.01;92.82;98652.55;1712215;83;21877;-73
2021/09/03 05:38:13;;;;;;;;;;;;;;;11.14;92.87;98649.34;1725902;83;20261;-73
2021/09/03 05:40:39;;;;;;;;;;;;;;;11.29;93.03;98652.64;1712337;84;20170;-72
2021/09/03 05:43:04;;;;;;;;;;;;;;;11.55;92.63;98649.41;1712453;83;20766;-72
2021/09/03 05:45:31;;;;;;;;;;;;;;;11.74;92.46;98640.99;1712273;83;20190;-73
2021/09/03 05:48:00;;;;;;;;;;;;;;;12.04;92.80;98645.60;1726497;83;21361;-73
2021/09/03 05:50:25;;;;;;;;;;;;;;;12.37;92.27;98639.29;1712081;83;20159;-72
2021/09/03 05:52:50;;;;;;;;;;;;;;;12.66;90.88;98634.86;1712440;84;20209;-71
2021/09/03 05:55:16;;;;;;;;;;;;;;;12.77;90.12;98639.70;1712191;84;20163;-73
2021/09/03 05:57:42;;;;;;;;;;;;;;;12.85;89.32;98631.50;1712489;83;20245;-74
2021/09/03 06:00:09;;;;;;;;;;;;;;;12.86;90.13;98631.22;1712125;84;21132;-74
2021/09/03 06:02:35;;;;;;;;;;;;;;;12.92;89.07;98628.75;1712443;83;20164;-73
2021/09/03 06:05:00;;;;;;;;;;;;;;;12.93;88.09;98620.86;1708816;83;20226;-73
2021/09/03 06:07:26;;;;;;;;;;;;;;;12.96;87.59;98624.36;1707719;83;20154;-75
2021/09/03 06:09:52;;;;;;;;;;;;;;;12.98;87.38;98616.73;1707018;83;20156;-73
2021/09/03 06:12:18;;;;;;;;;;;;;;;13.03;87.50;98617.81;1708061;83;21128;-74
2021/09/03 06:14:44;;;;;;;;;;;;;;;13.12;87.14;98619.66;1707827;83;20273;-74
2021/09/03 06:17:10;;;;;;;;;;;;;;;13.24;86.54;98622.05;1708097;83;20304;-78
2021/09/03 06:19:36;;;;;;;;;;;;;;;13.30;86.01;98622.84;1707960;83;20419;-74
2021/09/03 06:22:04;;;;;;;;;;;;;;;13.51;85.56;98622.97;1708220;83;20281;-75
2021/09/03 06:24:32;;;;;;;;;;;;;;;13.75;85.48;98621.66;1707919;83;21057;-74
2021/09/03 06:27:05;;;;;;;;;;;;;;;14.10;86.04;98617.27;1707855;83;20129;-75
2021/09/03 06:29:43;;;;;;;;;;;;;;;14.41;85.53;98615.56;1707926;83;20400;-75
2021/09/03 06:32:21;;;;;;;;;;;;;;;14.72;82.17;98614.69;1721622;83;20132;-75
2021/09/03 06:34:53;;;;;;;;;;;;;;;14.72;84.52;98608.42;1707948;84;20144;-75
2021/09/03 06:37:19;;;;;;;;;;;;;;;14.93;85.14;98616.03;1708080;83;21295;-75
2021/09/03 06:39:45;;;;;;;;;;;;;;;15.28;82.41;98614.45;1721616;83;20123;-78
2021/09/03 06:42:11;;;;;;;;;;;;;;;15.37;83.55;98613.48;1708059;83;20698;-75
2021/09/03 06:44:36;;;;;;;;;;;;;;;15.43;82.64;98610.14;1721687;83;20712;-75
2021/09/03 06:47:03;;;;;;;;;;;;;;;15.50;82.48;98610.58;1707827;83;20317;-75
2021/09/03 06:49:29;;;;;;;;;;;;;;;15.83;80.60;98611.98;1707873;83;21007;-75
2021/09/03 06:51:55;;;;;;;;;;;;;;;16.24;80.09;98607.97;1707871;83;20198;-74
2021/09/03 06:54:21;;;;;;;;;;;;;;;16.64;77.30;98600.87;1708004;83;20139;-77
2021/09/03 06:56:47;;;;;;;;;;;;;;;16.95;75.52;98603.81;1707846;83;20175;-74
2021/09/03 06:59:13;;;;;;;;;;;;;;;17.18;75.42;98604.12;1707910;84;20155;-79
2021/09/03 07:01:39;;;;;;;;;;;;;;;17.47;73.78;98599.59;1707852;83;21136;-79
2021/09/03 07:04:04;;;;;;;;;;;;;;;17.95;74.22;98605.05;1697524;84;20162;-77
2021/09/03 07:06:30;;;;;;;;;;;;;;;18.41;75.17;98605.98;1721803;83;20190;-79
2021/09/03 07:08:57;;;;;;;;;;;;;;;19.02;71.40;98602.87;1707967;83;20158;-74
2021/09/03 07:11:23;;;;;;;;;;;;;;;19.30;69.04;98607.49;1707862;83;20132;-74
2021/09/03 07:13:49;;;;;;;;;;;;;;;19.62;69.68;98597.18;1707999;83;21064;-79
2021/09/03 07:16:15;;;;;;;;;;;;;;;19.98;68.17;98592.66;1707797;83;20175;-78
2021/09/03 07:18:40;;;;;;;;;;;;;;;20.59;63.77;98585.58;1707974;83;20257;-78
2021/09/03 07:21:06;;;;;;;;;;;;;;;20.65;66.58;98583.69;1707902;83;20178;-74
2021/09/03 07:23:32;;;;;;;;;;;;;;;21.33;65.70;98575.33;1721803;83;20174;-75
2021/09/03 07:26:00;;;;;;;;;;;;;;;21.61;63.31;98576.36;1707983;84;21147;-75
2021/09/03 07:28:26;;;;;;;;;;;;;;;21.98;62.08;98579.83;1721919;83;20123;-75
2021/09/03 07:30:51;;;;;;;;;;;;;;;22.50;61.45;98578.09;1707977;83;20178;-79
2021/09/03 07:33:17;;;;;;;;;;;;;;;22.96;59.96;98569.69;1708071;83;20155;-74
2021/09/03 07:35:45;;;;;;;;;;;;;;;23.44;53.58;98571.53;1707932;83;20214;-75
2021/09/03 07:38:11;;;;;;;;;;;;;;;23.34;56.35;98567.30;1707986;84;21070;-78
2021/09/03 07:40:37;;;;;;;;;;;;;;;23.74;54.92;98569.23;1708089;83;20190;-78
2021/09/03 07:43:06;;;;;;;;;;;;;;;24.08;50.48;98573.30;1708233;84;20179;-75
2021/09/03 07:45:33;;;;;;;;;;;;;;;24.38;50.40;98565.41;1708241;83;20128;-78
2021/09/03 07:47:59;;;;;;;;;;;;;;;24.57;49.41;98566.06;1708303;84;20176;-75
2021/09/03 07:50:25;;;;;;;;;;;;;;;24.68;52.34;98565.73;1707913;83;21159;-78
2021/09/03 07:52:50;;;;;;;;;;;;;;;25.27;53.21;98560.56;1708191;83;20174;-75
2021/09/03 07:55:16;;;;;;;;;;;;;;;25.86;47.51;98557.20;1707991;83;20166;-75
2021/09/03 07:57:42;;;;;;;;;;;;;;;26.06;47.70;98551.84;1708182;83;20241;-79
2021/09/03 08:00:08;;;;;;;;;;;;;;;26.06;47.01;98549.62;1708062;83;20703;-75
2021/09/03 08:02:35;;;;;;;;;;;;;;;26.52;43.48;98549.66;1708358;83;21149;-75
2021/09/03 08:05:01;;;;;;;;;;;;;;;26.42;45.04;98548.31;1707923;83;20155;-75
2021/09/03 08:07:28;;;;;;;;;;;;;;;26.88;43.35;98546.83;1707996;83;20266;-76
2021/09/03 08:09:54;;;;;;;;;;;;;;;26.95;43.90;98547.73;1707995;83;20172;-80
2021/09/03 08:12:22;;;;;;;;;;;;;;;27.39;43.47;98547.75;1707909;84;20141;-79
2021/09/03 08:14:47;;;;;;;;;;;;;;;27.39;40.84;98544.38;1707898;83;21057;-75
2021/09/03 08:17:13;;;;;;;;;;;;;;;27.16;41.95;98548.64;1707891;83;20253;-79
2021/09/03 08:19:39;;;;;;;;;;;;;;;27.17;43.58;98541.09;1707950;83;20217;-80
2021/09/03 08:22:05;;;;;;;;;;;;;;;26.47;45.58;98545.80;1708058;83;20234;-75
2021/09/03 08:24:30;;;;;;;;;;;;;;;26.88;40.55;98536.52;1708073;83;20158;-75
2021/09/03 08:26:56;;;;;;;;;;;;;;;26.58;41.92;98541.23;1708079;83;21088;-79
2021/09/03 08:29:22;;;;;;;;;;;;;;;25.35;43.93;98538.52;1708064;83;20789;-75
2021/09/03 08:31:48;;;;;;;;;;;;;;;25.64;44.33;98537.95;1707948;83;20722;-80
2021/09/03 08:34:14;;;;;;;;;;;;;;;24.87;45.75;98537.30;1708051;83;20587;-79
2021/09/03 08:36:39;;;;;;;;;;;;;;;24.50;47.07;98540.96;1708049;84;20195;-80
2021/09/03 08:39:05;;;;;;;;;;;;;;;24.37;44.18;98535.31;1707964;83;21168;-75
2021/09/03 08:41:31;;;;;;;;;;;;;;;24.29;47.23;98539.84;1707975;84;20209;-80
2021/09/03 08:43:59;;;;;;;;;;;;;;;24.91;47.53;98533.20;1708020;83;20167;-79
2021/09/03 08:46:25;;;;;;;;;;;;;;;24.11;47.24;98542.75;1708049;84;20136;-75
2021/09/03 08:48:50;;;;;;;;;;;;;;;24.45;45.94;98537.90;1708015;83;20151;-75
2021/09/03 08:51:16;;;;;;;;;;;;;;;24.18;46.22;98529.89;1708005;83;21808;-80
2021/09/03 08:53:42;;;;;;;;;;;;;;;23.83;46.07;98538.05;1707924;83;20803;-79
2021/09/03 08:56:08;;;;;;;;;;;;;;;24.93;43.94;98530.28;1708058;83;20182;-79
2021/09/03 08:58:34;;;;;;;;;;;;;;;24.13;46.72;98533.50;1708191;83;20170;-74
2021/09/03 09:01:08;;;;;;;;;;;;;;;23.43;47.40;98529.02;1707866;83;20092;-79
2021/09/03 09:03:36;;;;;;;;;;;;;;;23.34;47.30;98526.41;1708142;84;21747;-75
2021/09/03 09:06:02;;;;;;;;;;;;;;;25.47;45.33;98525.33;1707017;83;20159;-79
2021/09/03 09:08:29;;;;;;;;;;;;;;;24.71;44.81;98515.16;1721958;83;20210;-75
2021/09/03 09:10:58;;;;;;;;;;;;;;;24.19;46.64;98522.39;1708033;83;20139;-80
2021/09/03 09:13:28;;;;;;;;;;;;;;;25.70;44.49;98519.00;1708082;83;20172;-76
2021/09/03 09:16:10;;;;;;;;;;;;;;;27.68;42.60;98512.72;1707822;84;21173;-75
2021/09/03 09:18:45;;;;;;;;;;;;;;;29.51;39.61;98510.92;1707966;84;20096;-80
2021/09/03 09:21:16;;;;;;;;;;;;;;;31.23;35.96;98501.37;1708028;83;20420;-80
2021/09/03 09:23:50;;;;;;;;;;;;;;;31.28;32.23;98502.96;1708330;83;20140;-75
2021/09/03 09:26:17;;;;;;;;;;;;;;;30.31;36.59;98504.48;1707175;83;20144;-76
2021/09/03 09:28:44;;;;;;;;;;;;;;;28.73;36.98;98506.31;1721920;83;21141;-80
2021/09/03 09:31:09;;;;;;;;;;;;;;;27.26;37.89;98502.11;1707967;83;20141;-80
2021/09/03 09:33:35;;;;;;;;;;;;;;;26.25;40.81;98495.44;1708141;83;20250;-80
2021/09/03 09:36:02;;;;;;;;;;;;;;;25.81;41.86;98490.91;1708130;83;20186;-76
2021/09/03 09:38:31;;;;;;;;;;;;;;;25.38;39.99;98488.69;1708023;83;20400;-80
2021/09/03 09:41:03;;;;;;;;;;;;;;;24.84;43.67;98491.47;1707708;83;20995;-75
2021/09/03 09:43:37;;;;;;;;;;;;;;;24.51;43.55;98501.02;1707779;83;20419;-80
2021/09/03 09:46:19;;;;;;;;;;;;;;;24.18;44.15;98501.38;1708008;83;20427;-80
2021/09/03 09:48:52;;;;;;;;;;;;;;;23.90;44.45;98500.08;1707987;83;20140;-80
2021/09/03 09:51:24;;;;;;;;;;;;;;;23.66;44.18;98497.46;1707983;83;20161;-80
2021/09/03 09:53:58;;;;;;;;;;;;;;;23.32;44.21;98496.91;1708000;83;21065;-76
2021/09/03 09:56:24;;;;;;;;;;;;;;;22.88;46.52;98487.73;1707993;84;20199;-75
2021/09/03 09:58:51;;;;;;;;;;;;;;;22.76;46.68;98489.34;1708040;83;20168;-76
2021/09/03 10:01:17;;;;;;;;;;;;;;;22.76;46.12;98484.40;1707984;83;20164;-75
2021/09/03 10:03:43;;;;;;;;;;;;;;;22.57;47.88;98490.54;1708109;84;20140;-80
2021/09/03 10:06:09;;;;;;;;;;;;;;;22.60;47.54;98484.89;1710974;83;21156;-80
2021/09/03 10:08:35;;;;;;;;;;;;;;;22.57;47.08;98481.45;1712287;83;20273;-80
2021/09/03 10:11:01;;;;;;;;;;;;;;;22.48;48.12;98487.10;1702044;84;20415;-79
2021/09/03 10:13:27;;;;;;;;;;;;;;;22.38;47.88;98482.83;1701987;84;20249;-80
2021/09/03 10:15:52;;;;;;;;;;;;;;;22.48;47.84;98478.81;1712495;83;20194;-79
2021/09/03 10:18:18;;;;;;;;;;;;;;;22.66;46.17;98474.64;1712157;83;21142;-79
2021/09/03 10:20:44;;;;;;;;;;;;;;;22.49;45.97;98469.37;1712426;84;20176;-80
2021/09/03 10:23:10;;;;;;;;;;;;;;;22.26;48.13;98465.48;1712124;84;20229;-76
2021/09/03 10:25:51;;;;;;;;;;;;;;;22.19;47.87;98471.57;1712505;84;20464;-79
2021/09/03 10:28:20;;;;;;;;;;;;;;;22.07;48.08;98478.45;1712203;83;20136;-79
2021/09/03 10:30:49;;;;;;;;;;;;;;;21.92;48.37;98471.64;1725129;83;21633;-79
2021/09/03 10:33:15;;;;;;;;;;;;;;;21.82;48.11;98470.14;1710400;84;20208;-79
2021/09/03 10:35:41;;;;;;;;;;;;;;;21.66;49.65;98470.57;1712365;84;20166;-75
2021/09/03 10:38:28;;;;;;;;;;;;;;;21.62;50.69;98463.57;1712103;83;20214;-76
2021/09/03 10:40:54;;;;;;;;;;;;;;;21.66;49.92;98463.68;1712413;83;20448;-79
2021/09/03 10:43:44;;;;;;;;;;;;;;;21.72;50.43;98456.00;1712029;83;21088;-79
2021/09/03 10:46:11;;;;;;;;;;;;;;;21.78;49.50;98451.85;1699689;83;20132;-79
2021/09/03 10:48:37;;;;;;;;;;;;;;;21.84;48.33;98451.30;1712368;84;20459;-76
2021/09/03 10:51:03;;;;;;;;;;;;;;;22.09;49.69;98444.44;1712466;83;20130;-79
2021/09/03 10:53:32;;;;;;;;;;;;;;;22.21;50.31;98450.75;1712340;84;20157;-76
2021/09/03 10:56:17;;;;;;;;;;;;;;;22.17;50.43;98446.28;1712488;84;21138;-75
2021/09/03 10:59:03;;;;;;;;;;;;;;;21.90;49.64;98446.37;1712399;84;20166;-76
2021/09/03 11:01:30;;;;;;;;;;;;;;;21.74;50.24;98453.13;1712269;84;20156;-76
2021/09/03 11:04:10;;;;;;;;;;;;;;;21.27;50.51;98450.70;1712157;84;20637;-76
2021/09/03 11:06:40;;;;;;;;;;;;;;;21.06;51.49;98443.83;1708723;83;20415;-79
2021/09/03 11:09:19;;;;;;;;;;;;;;;20.94;51.78;98444.36;1707754;83;21168;-79
2021/09/03 11:11:50;;;;;;;;;;;;;;;20.97;52.34;98439.55;1708070;83;20133;-76
2021/09/03 11:14:20;;;;;;;;;;;;;;;21.05;52.96;98431.20;1707988;83;20421;-79
2021/09/03 11:17:01;;;;;;;;;;;;;;;21.17;52.89;98429.05;1707984;83;20152;-75
2021/09/03 11:19:30;;;;;;;;;;;;;;;21.23;50.77;98422.77;1707890;83;20427;-79
2021/09/03 11:22:01;;;;;;;;;;;;;;;21.14;49.84;98429.74;1707958;84;21196;-79
2021/09/03 11:24:35;;;;;;;;;;;;;;;21.03;50.35;98424.43;1707881;83;20129;-75
2021/09/03 11:27:04;;;;;;;;;;;;;;;20.72;50.39;98421.53;1708033;83;20157;-76
2021/09/03 11:29:31;;;;;;;;;;;;;;;20.86;51.73;98419.08;1707985;83;20435;-79
2021/09/03 11:31:59;;;;;;;;;;;;;;;20.87;51.15;98417.36;1708138;83;20137;-79
2021/09/03 11:34:39;;;;;;;;;;;;;;;20.83;50.42;98410.90;1707971;83;21069;-78
2021/09/03 11:37:05;;;;;;;;;;;;;;;20.97;51.89;98416.13;1689271;83;20153;-77
2021/09/03 11:39:33;;;;;;;;;;;;;;;21.00;51.46;98416.25;1707954;83;20202;-75
2021/09/03 11:41:58;;;;;;;;;;;;;;;21.02;51.19;98413.98;1707720;83;20526;-79
2021/09/03 11:44:24;;;;;;;;;;;;;;;20.96;51.36;98409.82;1707841;84;20198;-79
2021/09/03 11:46:50;;;;;;;;;;;;;;;20.86;51.56;98409.44;1707970;83;20779;-79
2021/09/03 11:49:22;;;;;;;;;;;;;;;20.81;51.87;98402.98;1707810;83;20311;-75
2021/09/03 11:52:03;;;;;;;;;;;;;;;20.88;51.90;98395.55;1707747;83;20423;-79
2021/09/03 11:54:29;;;;;;;;;;;;;;;20.89;50.24;98403.24;1707840;83;20427;-79
2021/09/03 11:56:58;;;;;;;;;;;;;;;20.70;50.23;98400.98;1708190;83;20230;-79
2021/09/03 11:59:24;;;;;;;;;;;;;;;20.60;49.36;98398.08;1707925;83;21857;-75
2021/09/03 12:02:04;;;;;;;;;;;;;;;20.80;50.55;98397.81;1707994;83;20214;-75
2021/09/03 12:04:30;;;;;;;;;;;;;;;20.95;51.34;98395.81;1707913;83;20136;-75
2021/09/03 12:06:56;;;;;;;;;;;;;;;20.90;51.14;98395.22;1714005;83;20186;-75
2021/09/03 12:09:30;;;;;;;;;;;;;;;20.74;51.38;98386.19;1715771;83;20194;-76
2021/09/03 12:11:56;;;;;;;;;;;;;;;20.90;52.40;98387.75;1715964;83;21965;-79
2021/09/03 12:14:22;;;;;;;;;;;;;;;20.97;52.84;98394.91;1715741;83;20140;-76
2021/09/03 12:16:48;;;;;;;;;;;;;;;21.10;53.28;98383.34;1715777;83;20198;-76
2021/09/03 12:19:14;;;;;;;;;;;;;;;21.22;52.58;98383.38;1715844;83;20170;-75
2021/09/03 12:21:43;;;;;;;;;;;;;;;21.22;52.80;98379.25;1715909;83;20178;-75
2021/09/03 12:24:11;;;;;;;;;;;;;;;21.20;53.34;98383.50;1715724;83;21067;-79
2021/09/03 12:26:39;;;;;;;;;;;;;;;21.25;53.15;98384.07;1715973;83;20103;-79
2021/09/03 12:29:09;;;;;;;;;;;;;;;21.28;52.72;98380.69;1715886;83;20450;-79
2021/09/03 12:31:35;;;;;;;;;;;;;;;21.35;52.95;98373.20;1716264;83;20160;-78
2021/09/03 12:34:03;;;;;;;;;;;;;;;21.44;52.36;98372.53;1716040;83;20194;-76
2021/09/03 12:36:31;;;;;;;;;;;;;;;21.54;50.23;98365.80;1715480;83;21048;-79
2021/09/03 12:39:02;;;;;;;;;;;;;;;21.44;50.68;98367.59;1715797;83;20174;-78
2021/09/03 12:41:35;;;;;;;;;;;;;;;21.52;50.58;98365.31;1716241;83;20132;-75
2021/09/03 12:44:04;;;;;;;;;;;;;;;21.51;50.64;98364.50;1715876;83;20140;-79
2021/09/03 12:46:36;;;;;;;;;;;;;;;21.45;51.00;98359.01;1716160;83;20136;-79
2021/09/03 12:49:08;;;;;;;;;;;;;;;21.42;51.21;98354.73;1716004;83;21039;-78
2021/09/03 12:51:34;;;;;;;;;;;;;;;21.47;51.20;98355.33;1715155;83;20164;-76
2021/09/03 12:54:00;;;;;;;;;;;;;;;21.48;51.09;98347.28;1715803;83;20140;-79
2021/09/03 12:56:26;;;;;;;;;;;;;;;21.50;51.34;98349.69;1716125;83;20166;-79
2021/09/03 12:58:52;;;;;;;;;;;;;;;21.50;50.40;98340.05;1715868;83;20150;-76
2021/09/03 13:01:18;;;;;;;;;;;;;;;21.58;50.37;98338.55;1716118;83;21091;-75
2021/09/03 13:03:44;;;;;;;;;;;;;;;21.66;49.42;98340.97;1715679;83;20230;-75
2021/09/03 13:06:12;;;;;;;;;;;;;;;21.72;49.60;98338.22;1713199;83;20231;-79